sensor_id;sensor_type;location;lat;lon;timestamp;P1;durP1;ratioP1;P2;durP2;ratioP2
75171;SDS011;63750;52.418;20.742;2023-02-28T00:00:32;43.80;;;33.30;;
75171;SDS011;63750;52.418;20.742;2023-02-28T00:03:00;41.60;;;31.80;;
75171;SDS011;63750;52.418;20.742;2023-02-28T00:05:28;40.00;;;30.70;;
75171;SDS011;63750;52.418;20.742;2023-02-28T00:07:55;43.40;;;31.80;;
75171;SDS011;63750;52.418;20.742;2023-02-28T00:10:23;36.70;;;29.40;;
75171;SDS011;63750;52.418;20.742;2023-02-28T00:12:52;37.70;;;28.90;;
75171;SDS011;63750;52.418;20.742;2023-02-28T00:15:20;37.70;;;28.00;;
75171;SDS011;63750;52.418;20.742;2023-02-28T00:17:48;33.60;;;26.00;;
75171;SDS011;63750;52.418;20.742;2023-02-28T00:20:16;37.80;;;26.80;;
75171;SDS011;63750;52.418;20.742;2023-02-28T00:22:44;31.40;;;25.00;;
75171;SDS011;63750;52.418;20.742;2023-02-28T00:25:17;33.20;;;24.90;;
75171;SDS011;63750;52.418;20.742;2023-02-28T00:27:47;31.80;;;25.40;;
75171;SDS011;63750;52.418;20.742;2023-02-28T00:30:16;35.90;;;26.20;;
75171;SDS011;63750;52.418;20.742;2023-02-28T00:32:45;34.50;;;26.80;;
75171;SDS011;63750;52.418;20.742;2023-02-28T00:35:12;36.10;;;26.80;;
75171;SDS011;63750;52.418;20.742;2023-02-28T00:37:40;35.40;;;26.90;;
75171;SDS011;63750;52.418;20.742;2023-02-28T00:40:09;35.80;;;28.60;;
75171;SDS011;63750;52.418;20.742;2023-02-28T00:42:37;36.20;;;26.80;;
75171;SDS011;63750;52.418;20.742;2023-02-28T00:45:06;34.30;;;25.60;;
75171;SDS011;63750;52.418;20.742;2023-02-28T00:47:35;33.40;;;25.20;;
75171;SDS011;63750;52.418;20.742;2023-02-28T00:50:02;31.90;;;25.50;;
75171;SDS011;63750;52.418;20.742;2023-02-28T00:52:33;37.70;;;26.80;;
75171;SDS011;63750;52.418;20.742;2023-02-28T00:55:00;32.90;;;26.00;;
75171;SDS011;63750;52.418;20.742;2023-02-28T00:57:27;35.20;;;26.60;;
75171;SDS011;63750;52.418;20.742;2023-02-28T00:59:55;36.80;;;26.90;;
75171;SDS011;63750;52.418;20.742;2023-02-28T01:02:22;36.60;;;26.00;;
75171;SDS011;63750;52.418;20.742;2023-02-28T01:04:50;34.90;;;25.20;;
75171;SDS011;63750;52.418;20.742;2023-02-28T01:07:17;37.00;;;27.00;;
75171;SDS011;63750;52.418;20.742;2023-02-28T01:09:45;35.90;;;26.50;;
75171;SDS011;63750;52.418;20.742;2023-02-28T01:12:12;37.80;;;27.40;;
75171;SDS011;63750;52.418;20.742;2023-02-28T01:14:39;37.20;;;26.40;;
75171;SDS011;63750;52.418;20.742;2023-02-28T01:17:07;33.90;;;26.80;;
75171;SDS011;63750;52.418;20.742;2023-02-28T01:19:35;41.50;;;28.50;;
75171;SDS011;63750;52.418;20.742;2023-02-28T01:22:02;39.30;;;28.10;;
75171;SDS011;63750;52.418;20.742;2023-02-28T01:24:31;38.80;;;28.30;;
75171;SDS011;63750;52.418;20.742;2023-02-28T01:26:59;38.90;;;28.40;;
75171;SDS011;63750;52.418;20.742;2023-02-28T01:29:26;41.10;;;28.80;;
75171;SDS011;63750;52.418;20.742;2023-02-28T01:31:53;40.60;;;29.10;;
75171;SDS011;63750;52.418;20.742;2023-02-28T01:34:21;37.70;;;27.70;;
75171;SDS011;63750;52.418;20.742;2023-02-28T01:36:48;41.50;;;30.00;;
75171;SDS011;63750;52.418;20.742;2023-02-28T01:39:16;36.70;;;27.80;;
75171;SDS011;63750;52.418;20.742;2023-02-28T01:41:43;37.10;;;28.40;;
75171;SDS011;63750;52.418;20.742;2023-02-28T01:47:14;43.70;;;30.00;;
75171;SDS011;63750;52.418;20.742;2023-02-28T01:49:41;42.70;;;30.00;;
75171;SDS011;63750;52.418;20.742;2023-02-28T01:52:10;40.20;;;31.00;;
75171;SDS011;63750;52.418;20.742;2023-02-28T01:54:40;46.10;;;32.50;;
75171;SDS011;63750;52.418;20.742;2023-02-28T01:57:09;45.50;;;31.60;;
75171;SDS011;63750;52.418;20.742;2023-02-28T01:59:40;48.50;;;31.90;;
75171;SDS011;63750;52.418;20.742;2023-02-28T02:02:12;48.30;;;32.00;;
75171;SDS011;63750;52.418;20.742;2023-02-28T02:04:41;46.00;;;32.20;;
75171;SDS011;63750;52.418;20.742;2023-02-28T02:07:16;47.70;;;33.50;;
75171;SDS011;63750;52.418;20.742;2023-02-28T02:09:44;45.40;;;31.70;;
75171;SDS011;63750;52.418;20.742;2023-02-28T02:12:13;47.30;;;32.40;;
75171;SDS011;63750;52.418;20.742;2023-02-28T02:14:55;49.80;;;33.50;;
75171;SDS011;63750;52.418;20.742;2023-02-28T02:17:32;45.50;;;31.90;;
75171;SDS011;63750;52.418;20.742;2023-02-28T02:20:20;43.60;;;31.40;;
75171;SDS011;63750;52.418;20.742;2023-02-28T02:25:59;42.80;;;31.70;;
75171;SDS011;63750;52.418;20.742;2023-02-28T02:28:52;44.60;;;31.00;;
75171;SDS011;63750;52.418;20.742;2023-02-28T02:31:43;46.90;;;32.10;;
75171;SDS011;63750;52.418;20.742;2023-02-28T02:34:24;46.00;;;31.50;;
75171;SDS011;63750;52.418;20.742;2023-02-28T02:37:02;42.50;;;31.50;;
75171;SDS011;63750;52.418;20.742;2023-02-28T02:39:48;52.70;;;35.20;;
75171;SDS011;63750;52.418;20.742;2023-02-28T02:42:21;51.80;;;35.30;;
75171;SDS011;63750;52.418;20.742;2023-02-28T02:44:55;56.40;;;36.90;;
75171;SDS011;63750;52.418;20.742;2023-02-28T02:47:27;49.60;;;33.90;;
75171;SDS011;63750;52.418;20.742;2023-02-28T02:49:59;49.10;;;33.50;;
75171;SDS011;63750;52.418;20.742;2023-02-28T02:52:32;47.90;;;34.20;;
75171;SDS011;63750;52.418;20.742;2023-02-28T02:55:04;50.30;;;34.50;;
75171;SDS011;63750;52.418;20.742;2023-02-28T02:57:36;45.70;;;32.80;;
75171;SDS011;63750;52.418;20.742;2023-02-28T03:00:10;42.80;;;31.30;;
75171;SDS011;63750;52.418;20.742;2023-02-28T03:02:40;44.70;;;31.40;;
75171;SDS011;63750;52.418;20.742;2023-02-28T03:05:13;44.00;;;31.40;;
75171;SDS011;63750;52.418;20.742;2023-02-28T03:07:45;42.00;;;30.80;;
75171;SDS011;63750;52.418;20.742;2023-02-28T03:10:29;43.90;;;31.70;;
75171;SDS011;63750;52.418;20.742;2023-02-28T03:13:03;42.40;;;30.90;;
75171;SDS011;63750;52.418;20.742;2023-02-28T03:16:10;42.40;;;30.70;;
75171;SDS011;63750;52.418;20.742;2023-02-28T03:19:10;40.90;;;30.40;;
75171;SDS011;63750;52.418;20.742;2023-02-28T03:22:04;41.50;;;30.60;;
75171;SDS011;63750;52.418;20.742;2023-02-28T03:24:41;41.60;;;29.50;;
75171;SDS011;63750;52.418;20.742;2023-02-28T03:27:16;42.00;;;29.50;;
75171;SDS011;63750;52.418;20.742;2023-02-28T03:29:48;44.80;;;30.20;;
75171;SDS011;63750;52.418;20.742;2023-02-28T03:32:23;37.90;;;29.00;;
75171;SDS011;63750;52.418;20.742;2023-02-28T03:34:55;39.80;;;29.20;;
75171;SDS011;63750;52.418;20.742;2023-02-28T03:37:27;39.20;;;28.00;;
75171;SDS011;63750;52.418;20.742;2023-02-28T03:39:59;40.60;;;29.60;;
75171;SDS011;63750;52.418;20.742;2023-02-28T03:42:31;36.80;;;29.70;;
75171;SDS011;63750;52.418;20.742;2023-02-28T03:45:04;39.10;;;29.00;;
75171;SDS011;63750;52.418;20.742;2023-02-28T03:47:37;39.40;;;29.20;;
75171;SDS011;63750;52.418;20.742;2023-02-28T03:50:08;37.90;;;28.60;;
75171;SDS011;63750;52.418;20.742;2023-02-28T03:52:42;39.90;;;29.30;;
75171;SDS011;63750;52.418;20.742;2023-02-28T03:55:14;38.10;;;27.50;;
75171;SDS011;63750;52.418;20.742;2023-02-28T03:57:53;35.70;;;27.60;;
75171;SDS011;63750;52.418;20.742;2023-02-28T04:00:28;39.00;;;28.10;;
75171;SDS011;63750;52.418;20.742;2023-02-28T04:03:00;36.40;;;27.50;;
75171;SDS011;63750;52.418;20.742;2023-02-28T04:05:29;36.50;;;28.70;;
75171;SDS011;63750;52.418;20.742;2023-02-28T04:08:03;42.40;;;29.50;;
75171;SDS011;63750;52.418;20.742;2023-02-28T04:10:32;38.10;;;29.90;;
75171;SDS011;63750;52.418;20.742;2023-02-28T04:12:59;41.90;;;29.10;;
75171;SDS011;63750;52.418;20.742;2023-02-28T04:15:27;39.30;;;28.70;;
75171;SDS011;63750;52.418;20.742;2023-02-28T04:17:54;36.10;;;27.30;;
75171;SDS011;63750;52.418;20.742;2023-02-28T04:20:22;42.80;;;28.90;;
75171;SDS011;63750;52.418;20.742;2023-02-28T04:22:49;37.20;;;28.50;;
75171;SDS011;63750;52.418;20.742;2023-02-28T04:25:17;38.80;;;28.50;;
75171;SDS011;63750;52.418;20.742;2023-02-28T04:27:44;40.20;;;29.20;;
75171;SDS011;63750;52.418;20.742;2023-02-28T04:30:12;43.30;;;28.70;;
75171;SDS011;63750;52.418;20.742;2023-02-28T04:32:40;39.80;;;29.20;;
75171;SDS011;63750;52.418;20.742;2023-02-28T04:35:08;35.90;;;27.80;;
75171;SDS011;63750;52.418;20.742;2023-02-28T04:37:35;41.10;;;29.00;;
75171;SDS011;63750;52.418;20.742;2023-02-28T04:40:04;40.60;;;30.90;;
75171;SDS011;63750;52.418;20.742;2023-02-28T04:42:33;37.20;;;29.30;;
75171;SDS011;63750;52.418;20.742;2023-02-28T04:45:00;37.40;;;27.90;;
75171;SDS011;63750;52.418;20.742;2023-02-28T04:47:28;40.00;;;27.50;;
75171;SDS011;63750;52.418;20.742;2023-02-28T04:49:55;40.20;;;29.40;;
75171;SDS011;63750;52.418;20.742;2023-02-28T04:52:22;35.90;;;28.10;;
75171;SDS011;63750;52.418;20.742;2023-02-28T04:54:50;38.70;;;27.50;;
75171;SDS011;63750;52.418;20.742;2023-02-28T04:57:17;38.00;;;27.90;;
75171;SDS011;63750;52.418;20.742;2023-02-28T04:59:45;34.60;;;26.90;;
75171;SDS011;63750;52.418;20.742;2023-02-28T05:02:12;35.20;;;26.50;;
75171;SDS011;63750;52.418;20.742;2023-02-28T05:04:39;35.90;;;26.90;;
75171;SDS011;63750;52.418;20.742;2023-02-28T05:07:06;41.30;;;28.00;;
75171;SDS011;63750;52.418;20.742;2023-02-28T05:09:34;37.10;;;27.30;;
75171;SDS011;63750;52.418;20.742;2023-02-28T05:12:01;40.20;;;28.40;;
75171;SDS011;63750;52.418;20.742;2023-02-28T05:14:29;38.70;;;28.40;;
75171;SDS011;63750;52.418;20.742;2023-02-28T05:16:56;39.60;;;28.30;;
75171;SDS011;63750;52.418;20.742;2023-02-28T05:19:23;39.30;;;29.20;;
75171;SDS011;63750;52.418;20.742;2023-02-28T05:21:51;34.90;;;26.90;;
75171;SDS011;63750;52.418;20.742;2023-02-28T05:24:20;37.80;;;26.60;;
75171;SDS011;63750;52.418;20.742;2023-02-28T05:26:47;31.90;;;24.80;;
75171;SDS011;63750;52.418;20.742;2023-02-28T05:29:16;36.80;;;27.50;;
75171;SDS011;63750;52.418;20.742;2023-02-28T05:31:43;33.10;;;24.90;;
75171;SDS011;63750;52.418;20.742;2023-02-28T05:34:10;34.00;;;27.40;;
75171;SDS011;63750;52.418;20.742;2023-02-28T05:36:38;34.60;;;25.60;;
75171;SDS011;63750;52.418;20.742;2023-02-28T05:39:05;32.40;;;25.10;;
75171;SDS011;63750;52.418;20.742;2023-02-28T05:41:33;34.30;;;25.40;;
75171;SDS011;63750;52.418;20.742;2023-02-28T05:44:00;35.60;;;25.20;;
75171;SDS011;63750;52.418;20.742;2023-02-28T05:46:27;33.40;;;25.00;;
75171;SDS011;63750;52.418;20.742;2023-02-28T05:48:55;33.50;;;24.80;;
75171;SDS011;63750;52.418;20.742;2023-02-28T05:51:22;34.60;;;25.40;;
75171;SDS011;63750;52.418;20.742;2023-02-28T05:53:49;34.90;;;24.60;;
75171;SDS011;63750;52.418;20.742;2023-02-28T05:56:17;31.00;;;23.90;;
75171;SDS011;63750;52.418;20.742;2023-02-28T05:58:44;31.50;;;23.80;;
75171;SDS011;63750;52.418;20.742;2023-02-28T06:04:01;33.80;;;24.70;;
75171;SDS011;63750;52.418;20.742;2023-02-28T06:06:29;34.50;;;25.30;;
75171;SDS011;63750;52.418;20.742;2023-02-28T06:08:57;33.40;;;25.20;;
75171;SDS011;63750;52.418;20.742;2023-02-28T06:11:24;35.00;;;25.60;;
75171;SDS011;63750;52.418;20.742;2023-02-28T06:13:52;31.60;;;23.60;;
75171;SDS011;63750;52.418;20.742;2023-02-28T06:16:20;38.00;;;25.30;;
75171;SDS011;63750;52.418;20.742;2023-02-28T06:18:48;34.60;;;26.70;;
75171;SDS011;63750;52.418;20.742;2023-02-28T06:21:15;36.70;;;26.90;;
75171;SDS011;63750;52.418;20.742;2023-02-28T06:23:43;38.40;;;28.20;;
75171;SDS011;63750;52.418;20.742;2023-02-28T06:26:10;36.40;;;27.40;;
75171;SDS011;63750;52.418;20.742;2023-02-28T06:28:37;37.10;;;28.70;;
75171;SDS011;63750;52.418;20.742;2023-02-28T06:31:08;34.00;;;25.80;;
75171;SDS011;63750;52.418;20.742;2023-02-28T06:33:38;37.40;;;26.90;;
75171;SDS011;63750;52.418;20.742;2023-02-28T06:36:07;33.20;;;26.30;;
75171;SDS011;63750;52.418;20.742;2023-02-28T06:38:36;32.50;;;25.30;;
75171;SDS011;63750;52.418;20.742;2023-02-28T06:41:04;36.50;;;26.60;;
75171;SDS011;63750;52.418;20.742;2023-02-28T06:43:33;33.00;;;25.50;;
75171;SDS011;63750;52.418;20.742;2023-02-28T06:46:03;33.70;;;26.60;;
75171;SDS011;63750;52.418;20.742;2023-02-28T06:48:33;33.60;;;25.60;;
75171;SDS011;63750;52.418;20.742;2023-02-28T06:51:02;34.50;;;25.90;;
75171;SDS011;63750;52.418;20.742;2023-02-28T06:53:30;39.00;;;28.00;;
75171;SDS011;63750;52.418;20.742;2023-02-28T06:55:58;34.80;;;26.20;;
75171;SDS011;63750;52.418;20.742;2023-02-28T06:58:29;31.70;;;25.80;;
75171;SDS011;63750;52.418;20.742;2023-02-28T07:00:56;33.90;;;27.10;;
75171;SDS011;63750;52.418;20.742;2023-02-28T07:03:23;35.90;;;27.70;;
75171;SDS011;63750;52.418;20.742;2023-02-28T07:05:51;36.30;;;29.30;;
75171;SDS011;63750;52.418;20.742;2023-02-28T07:08:18;38.20;;;29.10;;
75171;SDS011;63750;52.418;20.742;2023-02-28T07:10:46;35.20;;;27.90;;
75171;SDS011;63750;52.418;20.742;2023-02-28T07:13:13;36.90;;;27.00;;
75171;SDS011;63750;52.418;20.742;2023-02-28T07:15:40;32.00;;;25.20;;
75171;SDS011;63750;52.418;20.742;2023-02-28T07:18:08;21.70;;;15.90;;
75171;SDS011;63750;52.418;20.742;2023-02-28T07:20:35;22.50;;;16.70;;
75171;SDS011;63750;52.418;20.742;2023-02-28T07:23:03;25.80;;;19.30;;
75171;SDS011;63750;52.418;20.742;2023-02-28T07:25:31;26.60;;;20.60;;
75171;SDS011;63750;52.418;20.742;2023-02-28T07:27:58;23.70;;;20.20;;
75171;SDS011;63750;52.418;20.742;2023-02-28T07:30:25;27.00;;;21.00;;
75171;SDS011;63750;52.418;20.742;2023-02-28T07:32:53;28.30;;;23.40;;
75171;SDS011;63750;52.418;20.742;2023-02-28T07:35:20;25.20;;;22.40;;
75171;SDS011;63750;52.418;20.742;2023-02-28T07:37:48;26.10;;;21.70;;
75171;SDS011;63750;52.418;20.742;2023-02-28T07:40:15;28.80;;;23.60;;
75171;SDS011;63750;52.418;20.742;2023-02-28T07:42:43;28.40;;;22.90;;
75171;SDS011;63750;52.418;20.742;2023-02-28T07:45:10;23.50;;;19.90;;
75171;SDS011;63750;52.418;20.742;2023-02-28T07:47:38;24.20;;;20.10;;
75171;SDS011;63750;52.418;20.742;2023-02-28T07:50:08;22.80;;;20.20;;
75171;SDS011;63750;52.418;20.742;2023-02-28T07:52:38;25.80;;;21.50;;
75171;SDS011;63750;52.418;20.742;2023-02-28T07:55:07;23.50;;;20.60;;
75171;SDS011;63750;52.418;20.742;2023-02-28T07:57:35;23.10;;;20.40;;
75171;SDS011;63750;52.418;20.742;2023-02-28T08:00:04;19.80;;;16.20;;
75171;SDS011;63750;52.418;20.742;2023-02-28T08:02:36;17.80;;;15.90;;
75171;SDS011;63750;52.418;20.742;2023-02-28T08:05:04;17.20;;;15.40;;
75171;SDS011;63750;52.418;20.742;2023-02-28T08:07:33;18.30;;;15.80;;
75171;SDS011;63750;52.418;20.742;2023-02-28T08:10:00;18.10;;;15.40;;
75171;SDS011;63750;52.418;20.742;2023-02-28T08:12:28;20.30;;;17.40;;
75171;SDS011;63750;52.418;20.742;2023-02-28T08:14:56;22.20;;;17.80;;
75171;SDS011;63750;52.418;20.742;2023-02-28T08:17:23;16.40;;;13.80;;
75171;SDS011;63750;52.418;20.742;2023-02-28T08:19:51;15.50;;;13.50;;
75171;SDS011;63750;52.418;20.742;2023-02-28T08:22:18;13.20;;;11.90;;
75171;SDS011;63750;52.418;20.742;2023-02-28T08:24:45;16.40;;;14.70;;
75171;SDS011;63750;52.418;20.742;2023-02-28T08:27:13;17.40;;;15.30;;
75171;SDS011;63750;52.418;20.742;2023-02-28T08:29:40;14.80;;;12.70;;
75171;SDS011;63750;52.418;20.742;2023-02-28T08:32:08;11.90;;;10.80;;
75171;SDS011;63750;52.418;20.742;2023-02-28T08:34:35;12.30;;;11.00;;
75171;SDS011;63750;52.418;20.742;2023-02-28T08:37:04;12.20;;;11.00;;
75171;SDS011;63750;52.418;20.742;2023-02-28T08:39:33;12.50;;;11.20;;
75171;SDS011;63750;52.418;20.742;2023-02-28T08:42:01;12.10;;;10.80;;
75171;SDS011;63750;52.418;20.742;2023-02-28T08:44:29;12.90;;;11.50;;
75171;SDS011;63750;52.418;20.742;2023-02-28T08:46:57;12.20;;;11.10;;
75171;SDS011;63750;52.418;20.742;2023-02-28T08:49:24;12.70;;;11.50;;
75171;SDS011;63750;52.418;20.742;2023-02-28T08:51:51;13.20;;;11.30;;
75171;SDS011;63750;52.418;20.742;2023-02-28T08:54:19;11.60;;;10.50;;
75171;SDS011;63750;52.418;20.742;2023-02-28T08:56:46;13.80;;;11.00;;
75171;SDS011;63750;52.418;20.742;2023-02-28T08:59:14;12.40;;;11.10;;
75171;SDS011;63750;52.418;20.742;2023-02-28T09:01:42;14.60;;;12.00;;
75171;SDS011;63750;52.418;20.742;2023-02-28T09:04:09;11.90;;;10.70;;
75171;SDS011;63750;52.418;20.742;2023-02-28T09:06:37;12.80;;;11.40;;
75171;SDS011;63750;52.418;20.742;2023-02-28T09:09:04;13.00;;;11.70;;
75171;SDS011;63750;52.418;20.742;2023-02-28T09:11:32;14.30;;;12.80;;
75171;SDS011;63750;52.418;20.742;2023-02-28T09:14:00;14.50;;;12.40;;
75171;SDS011;63750;52.418;20.742;2023-02-28T09:16:27;16.10;;;13.20;;
75171;SDS011;63750;52.418;20.742;2023-02-28T09:18:56;14.80;;;13.10;;
75171;SDS011;63750;52.418;20.742;2023-02-28T09:21:24;14.20;;;12.70;;
75171;SDS011;63750;52.418;20.742;2023-02-28T09:23:51;13.10;;;11.30;;
75171;SDS011;63750;52.418;20.742;2023-02-28T09:26:19;13.80;;;12.40;;
75171;SDS011;63750;52.418;20.742;2023-02-28T09:28:49;14.50;;;13.10;;
75171;SDS011;63750;52.418;20.742;2023-02-28T09:31:17;14.30;;;12.80;;
75171;SDS011;63750;52.418;20.742;2023-02-28T09:33:46;17.30;;;14.10;;
75171;SDS011;63750;52.418;20.742;2023-02-28T09:36:14;16.50;;;14.70;;
75171;SDS011;63750;52.418;20.742;2023-02-28T09:38:41;18.30;;;15.20;;
75171;SDS011;63750;52.418;20.742;2023-02-28T09:41:11;15.70;;;13.70;;
75171;SDS011;63750;52.418;20.742;2023-02-28T09:43:42;15.20;;;13.60;;
75171;SDS011;63750;52.418;20.742;2023-02-28T09:46:14;15.60;;;14.00;;
75171;SDS011;63750;52.418;20.742;2023-02-28T09:48:52;15.10;;;13.60;;
75171;SDS011;63750;52.418;20.742;2023-02-28T09:51:27;14.90;;;13.40;;
75171;SDS011;63750;52.418;20.742;2023-02-28T09:54:12;16.00;;;14.40;;
75171;SDS011;63750;52.418;20.742;2023-02-28T09:56:42;15.00;;;13.50;;
75171;SDS011;63750;52.418;20.742;2023-02-28T09:59:13;14.30;;;12.90;;
75171;SDS011;63750;52.418;20.742;2023-02-28T10:01:52;15.40;;;13.80;;
75171;SDS011;63750;52.418;20.742;2023-02-28T10:04:34;14.40;;;12.90;;
75171;SDS011;63750;52.418;20.742;2023-02-28T10:07:12;14.60;;;13.10;;
75171;SDS011;63750;52.418;20.742;2023-02-28T10:09:49;13.90;;;12.50;;
75171;SDS011;63750;52.418;20.742;2023-02-28T10:12:21;14.80;;;13.40;;
75171;SDS011;63750;52.418;20.742;2023-02-28T10:14:51;11.80;;;10.60;;
75171;SDS011;63750;52.418;20.742;2023-02-28T10:17:20;11.40;;;10.30;;
75171;SDS011;63750;52.418;20.742;2023-02-28T10:19:54;12.40;;;11.20;;
75171;SDS011;63750;52.418;20.742;2023-02-28T10:22:27;12.70;;;10.70;;
75171;SDS011;63750;52.418;20.742;2023-02-28T10:25:16;13.50;;;11.80;;
75171;SDS011;63750;52.418;20.742;2023-02-28T10:27:46;14.90;;;12.30;;
75171;SDS011;63750;52.418;20.742;2023-02-28T10:30:14;12.90;;;11.60;;
75171;SDS011;63750;52.418;20.742;2023-02-28T10:32:42;12.10;;;11.00;;
75171;SDS011;63750;52.418;20.742;2023-02-28T10:35:16;12.30;;;11.00;;
75171;SDS011;63750;52.418;20.742;2023-02-28T10:37:46;12.00;;;10.80;;
75171;SDS011;63750;52.418;20.742;2023-02-28T10:40:30;12.60;;;11.40;;
75171;SDS011;63750;52.418;20.742;2023-02-28T10:42:59;12.20;;;10.80;;
75171;SDS011;63750;52.418;20.742;2023-02-28T10:45:28;12.00;;;10.70;;
75171;SDS011;63750;52.418;20.742;2023-02-28T10:47:58;12.10;;;10.90;;
75171;SDS011;63750;52.418;20.742;2023-02-28T10:50:36;12.00;;;10.80;;
75171;SDS011;63750;52.418;20.742;2023-02-28T10:53:17;12.00;;;10.80;;
75171;SDS011;63750;52.418;20.742;2023-02-28T10:55:57;12.50;;;11.20;;
75171;SDS011;63750;52.418;20.742;2023-02-28T10:58:26;12.30;;;11.10;;
75171;SDS011;63750;52.418;20.742;2023-02-28T11:00:56;10.80;;;9.70;;
75171;SDS011;63750;52.418;20.742;2023-02-28T11:03:25;10.50;;;8.90;;
75171;SDS011;63750;52.418;20.742;2023-02-28T11:05:57;13.20;;;11.80;;
75171;SDS011;63750;52.418;20.742;2023-02-28T11:08:29;12.20;;;11.00;;
75171;SDS011;63750;52.418;20.742;2023-02-28T11:10:58;14.20;;;12.70;;
75171;SDS011;63750;52.418;20.742;2023-02-28T11:13:31;13.70;;;11.70;;
75171;SDS011;63750;52.418;20.742;2023-02-28T11:16:00;13.90;;;12.40;;
75171;SDS011;63750;52.418;20.742;2023-02-28T11:18:33;12.00;;;10.80;;
75171;SDS011;63750;52.418;20.742;2023-02-28T11:21:06;12.60;;;11.40;;
75171;SDS011;63750;52.418;20.742;2023-02-28T11:23:41;12.60;;;11.30;;
75171;SDS011;63750;52.418;20.742;2023-02-28T11:26:09;12.50;;;10.80;;
75171;SDS011;63750;52.418;20.742;2023-02-28T11:28:37;13.60;;;11.20;;
75171;SDS011;63750;52.418;20.742;2023-02-28T11:31:14;12.80;;;11.50;;
75171;SDS011;63750;52.418;20.742;2023-02-28T11:33:44;12.90;;;11.60;;
75171;SDS011;63750;52.418;20.742;2023-02-28T11:36:14;12.90;;;11.60;;
75171;SDS011;63750;52.418;20.742;2023-02-28T11:38:43;12.50;;;11.30;;
75171;SDS011;63750;52.418;20.742;2023-02-28T11:47:10;12.90;;;11.60;;
75171;SDS011;63750;52.418;20.742;2023-02-28T11:49:45;13.30;;;11.90;;
75171;SDS011;63750;52.418;20.742;2023-02-28T11:52:25;13.90;;;12.40;;
75171;SDS011;63750;52.418;20.742;2023-02-28T11:55:05;13.30;;;12.00;;
75171;SDS011;63750;52.418;20.742;2023-02-28T11:57:46;13.80;;;12.00;;
75171;SDS011;63750;52.418;20.742;2023-02-28T12:00:28;12.70;;;11.40;;
75171;SDS011;63750;52.418;20.742;2023-02-28T12:03:07;14.20;;;12.50;;
75171;SDS011;63750;52.418;20.742;2023-02-28T12:05:54;14.80;;;12.40;;
75171;SDS011;63750;52.418;20.742;2023-02-28T12:08:31;14.50;;;11.50;;
75171;SDS011;63750;52.418;20.742;2023-02-28T12:11:10;12.50;;;11.20;;
75171;SDS011;63750;52.418;20.742;2023-02-28T12:13:48;12.40;;;11.20;;
75171;SDS011;63750;52.418;20.742;2023-02-28T12:16:35;12.70;;;11.40;;
75171;SDS011;63750;52.418;20.742;2023-02-28T12:19:21;12.70;;;11.50;;
75171;SDS011;63750;52.418;20.742;2023-02-28T12:24:57;12.60;;;11.30;;
75171;SDS011;63750;52.418;20.742;2023-02-28T12:27:42;13.20;;;11.40;;
75171;SDS011;63750;52.418;20.742;2023-02-28T12:30:14;12.30;;;11.10;;
75171;SDS011;63750;52.418;20.742;2023-02-28T12:32:45;13.40;;;12.10;;
75171;SDS011;63750;52.418;20.742;2023-02-28T12:35:16;12.90;;;11.20;;
75171;SDS011;63750;52.418;20.742;2023-02-28T12:37:49;12.50;;;11.30;;
75171;SDS011;63750;52.418;20.742;2023-02-28T12:40:22;13.00;;;11.70;;
75171;SDS011;63750;52.418;20.742;2023-02-28T12:42:59;13.00;;;11.70;;
75171;SDS011;63750;52.418;20.742;2023-02-28T12:45:37;13.40;;;11.70;;
75171;SDS011;63750;52.418;20.742;2023-02-28T12:48:09;12.10;;;11.00;;
75171;SDS011;63750;52.418;20.742;2023-02-28T12:50:40;12.40;;;11.20;;
75171;SDS011;63750;52.418;20.742;2023-02-28T12:53:09;12.90;;;11.70;;
75171;SDS011;63750;52.418;20.742;2023-02-28T12:55:45;12.60;;;11.30;;
75171;SDS011;63750;52.418;20.742;2023-02-28T12:58:22;13.40;;;10.90;;
75171;SDS011;63750;52.418;20.742;2023-02-28T13:01:06;12.60;;;11.30;;
75171;SDS011;63750;52.418;20.742;2023-02-28T13:03:57;13.90;;;11.60;;
75171;SDS011;63750;52.418;20.742;2023-02-28T13:06:43;12.80;;;11.50;;
75171;SDS011;63750;52.418;20.742;2023-02-28T13:09:24;13.00;;;11.80;;
75171;SDS011;63750;52.418;20.742;2023-02-28T13:11:52;13.50;;;12.10;;
75171;SDS011;63750;52.418;20.742;2023-02-28T13:14:24;12.40;;;10.60;;
75171;SDS011;63750;52.418;20.742;2023-02-28T13:17:02;12.80;;;11.50;;
75171;SDS011;63750;52.418;20.742;2023-02-28T13:19:37;14.10;;;11.40;;
75171;SDS011;63750;52.418;20.742;2023-02-28T13:22:12;12.60;;;11.40;;
75171;SDS011;63750;52.418;20.742;2023-02-28T13:24:46;13.70;;;11.20;;
75171;SDS011;63750;52.418;20.742;2023-02-28T13:30:02;12.80;;;11.50;;
75171;SDS011;63750;52.418;20.742;2023-02-28T13:33:23;12.80;;;10.90;;
75171;SDS011;63750;52.418;20.742;2023-02-28T13:36:09;13.60;;;11.90;;
75171;SDS011;63750;52.418;20.742;2023-02-28T13:38:48;14.20;;;12.20;;
75171;SDS011;63750;52.418;20.742;2023-02-28T13:44:08;13.30;;;11.90;;
75171;SDS011;63750;52.418;20.742;2023-02-28T13:49:38;12.50;;;11.20;;
75171;SDS011;63750;52.418;20.742;2023-02-28T13:52:09;13.40;;;12.10;;
75171;SDS011;63750;52.418;20.742;2023-02-28T13:54:44;13.00;;;11.80;;
75171;SDS011;63750;52.418;20.742;2023-02-28T13:57:23;13.70;;;12.30;;
75171;SDS011;63750;52.418;20.742;2023-02-28T14:00:13;14.60;;;12.30;;
75171;SDS011;63750;52.418;20.742;2023-02-28T14:02:54;14.60;;;12.90;;
75171;SDS011;63750;52.418;20.742;2023-02-28T14:05:32;14.20;;;12.20;;
75171;SDS011;63750;52.418;20.742;2023-02-28T14:08:03;14.40;;;12.60;;
75171;SDS011;63750;52.418;20.742;2023-02-28T14:10:35;14.30;;;12.90;;
75171;SDS011;63750;52.418;20.742;2023-02-28T14:13:36;14.00;;;12.50;;
75171;SDS011;63750;52.418;20.742;2023-02-28T14:16:06;14.50;;;12.70;;
75171;SDS011;63750;52.418;20.742;2023-02-28T14:18:37;14.30;;;12.90;;
75171;SDS011;63750;52.418;20.742;2023-02-28T14:21:11;15.30;;;13.60;;
75171;SDS011;63750;52.418;20.742;2023-02-28T14:26:53;14.60;;;12.20;;
75171;SDS011;63750;52.418;20.742;2023-02-28T14:29:43;15.10;;;13.40;;
75171;SDS011;63750;52.418;20.742;2023-02-28T14:32:26;13.70;;;12.30;;
75171;SDS011;63750;52.418;20.742;2023-02-28T14:35:01;12.50;;;11.20;;
75171;SDS011;63750;52.418;20.742;2023-02-28T14:37:38;13.80;;;12.50;;
75171;SDS011;63750;52.418;20.742;2023-02-28T14:40:12;15.50;;;13.80;;
75171;SDS011;63750;52.418;20.742;2023-02-28T14:42:47;14.70;;;13.20;;
75171;SDS011;63750;52.418;20.742;2023-02-28T14:45:21;13.40;;;12.10;;
75171;SDS011;63750;52.418;20.742;2023-02-28T14:47:50;15.00;;;12.90;;
75171;SDS011;63750;52.418;20.742;2023-02-28T14:50:18;16.20;;;13.00;;
75171;SDS011;63750;52.418;20.742;2023-02-28T14:52:48;15.10;;;13.50;;
75171;SDS011;63750;52.418;20.742;2023-02-28T14:55:18;14.60;;;13.10;;
75171;SDS011;63750;52.418;20.742;2023-02-28T14:57:52;14.50;;;13.00;;
75171;SDS011;63750;52.418;20.742;2023-02-28T15:00:23;15.10;;;13.50;;
75171;SDS011;63750;52.418;20.742;2023-02-28T15:02:53;14.70;;;13.10;;